Time;durP1;ratioP1;P1;durP2;ratioP2;P2;SDS_P1;SDS_P2;PMS_P1;PMS_P2;Temp;Humidity;BMP_temperature;BMP_pressure;BME280_temperature;BME280_humidity;BME280_pressure;Samples;Min_cycle;Max_cycle;Signal;HPM_P1;HPM_P2
2022/03/31 00:00:24;;;;;;;1.10;0.63;;;17.60;59.50;;;;;;5229674;28;20721;-65
2022/03/31 00:03:19;;;;;;;0.90;0.70;;;17.60;59.50;;;;;;5245500;28;20633;-65
2022/03/31 00:06:12;;;;;;;0.90;0.70;;;17.60;59.50;;;;;;5245033;28;20209;-65
2022/03/31 00:09:04;;;;;;;1.03;0.60;;;17.50;60.00;;;;;;5245765;28;20200;-66
2022/03/31 00:11:58;;;;;;;1.23;0.70;;;17.60;59.50;;;;;;5244810;28;20199;-66
2022/03/31 00:14:50;;;;;;;0.87;0.60;;;17.50;59.50;;;;;;5244804;28;20212;-66
2022/03/31 00:17:44;;;;;;;0.50;0.50;;;17.60;59.50;;;;;;5245415;28;20197;-65
2022/03/31 00:20:36;;;;;;;0.87;0.57;;;17.60;59.40;;;;;;5245719;28;20284;-66
2022/03/31 00:23:29;;;;;;;0.70;0.50;;;17.60;59.40;;;;;;5243826;28;20307;-65
2022/03/31 00:26:22;;;;;;;1.27;0.70;;;17.50;59.40;;;;;;5244456;28;20671;-65
2022/03/31 00:29:14;;;;;;;1.30;0.60;;;17.60;59.40;;;;;;5244587;28;20275;-64
2022/03/31 00:32:07;;;;;;;1.17;0.70;;;17.60;59.40;;;;;;5235699;28;20667;-66
2022/03/31 00:35:00;;;;;;;1.63;0.97;;;17.50;59.40;;;;;;5243931;28;20216;-65
2022/03/31 00:37:53;;;;;;;0.40;0.40;;;17.60;59.40;;;;;;5244804;28;20251;-65
2022/03/31 00:40:45;;;;;;;1.27;0.60;;;17.60;59.40;;;;;;5244523;28;20216;-66
2022/03/31 00:43:37;;;;;;;0.73;0.47;;;17.50;59.40;;;;;;5244656;28;20262;-66
2022/03/31 00:46:30;;;;;;;0.80;0.57;;;17.60;59.40;;;;;;5244774;28;20196;-65
2022/03/31 00:49:24;;;;;;;0.93;0.60;;;17.50;59.30;;;;;;5244188;28;20326;-65
2022/03/31 00:52:17;;;;;;;1.63;0.70;;;17.50;59.30;;;;;;5226070;28;20193;-64
2022/03/31 00:55:11;;;;;;;1.97;0.80;;;17.50;59.30;;;;;;5244475;28;20731;-66
2022/03/31 00:58:05;;;;;;;0.50;0.50;;;17.50;59.40;;;;;;5244764;28;20192;-66
2022/03/31 01:00:57;;;;;;;1.07;0.70;;;17.50;59.30;;;;;;5244314;28;20227;-65
2022/03/31 01:03:49;;;;;;;0.73;0.60;;;17.50;59.40;;;;;;5244462;28;20235;-65
2022/03/31 01:06:43;;;;;;;0.97;0.50;;;17.50;59.40;;;;;;5244616;28;20200;-65
2022/03/31 01:09:36;;;;;;;0.67;0.53;;;17.50;59.40;;;;;;5245887;28;20299;-66
2022/03/31 01:12:29;;;;;;;1.03;0.53;;;17.50;59.40;;;;;;5231721;28;20208;-66
2022/03/31 01:15:21;;;;;;;0.97;0.57;;;17.50;59.40;;;;;;5244442;28;20205;-66
2022/03/31 01:18:13;;;;;;;0.87;0.50;;;17.50;59.40;;;;;;5244214;28;20196;-66
2022/03/31 01:21:05;;;;;;;0.70;0.57;;;17.50;59.40;;;;;;5243796;28;20201;-66
2022/03/31 01:23:59;;;;;;;0.87;0.60;;;17.50;59.40;;;;;;5243568;28;20220;-66
2022/03/31 01:26:52;;;;;;;0.80;0.60;;;17.50;59.40;;;;;;5244240;28;20196;-66
2022/03/31 01:29:44;;;;;;;0.60;0.40;;;17.50;59.30;;;;;;5243983;28;20212;-66
2022/03/31 01:32:37;;;;;;;1.00;0.50;;;17.50;59.30;;;;;;5237842;28;20193;-66
2022/03/31 01:35:29;;;;;;;0.40;0.40;;;17.50;59.30;;;;;;5223993;28;20727;-65
2022/03/31 01:38:21;;;;;;;1.20;0.60;;;17.50;59.30;;;;;;5242396;28;20679;-66
2022/03/31 01:41:15;;;;;;;1.53;0.63;;;17.50;59.30;;;;;;5244364;28;20231;-65
2022/03/31 01:44:07;;;;;;;0.60;0.53;;;17.50;59.30;;;;;;5243597;28;20220;-66
2022/03/31 01:46:59;;;;;;;0.60;0.40;;;17.50;59.30;;;;;;5243516;28;20677;-65
2022/03/31 01:49:51;;;;;;;1.00;0.60;;;17.50;59.30;;;;;;5241354;28;20204;-66
2022/03/31 01:52:44;;;;;;;1.00;0.60;;;17.50;59.30;;;;;;5238620;28;20283;-65
2022/03/31 01:55:36;;;;;;;0.50;0.50;;;17.50;59.30;;;;;;5244232;28;20196;-65
2022/03/31 01:58:30;;;;;;;1.03;0.57;;;17.50;59.30;;;;;;5235169;28;20251;-65
2022/03/31 02:01:22;;;;;;;0.60;0.60;;;17.50;59.30;;;;;;5243156;28;20216;-66
2022/03/31 02:04:15;;;;;;;0.47;0.43;;;17.50;59.30;;;;;;5242750;28;20228;-66
2022/03/31 02:07:08;;;;;;;0.60;0.40;;;17.50;59.30;;;;;;5233881;28;20208;-66
2022/03/31 02:10:00;;;;;;;0.50;0.50;;;17.50;59.30;;;;;;5233081;28;20189;-65
2022/03/31 02:12:53;;;;;;;0.80;0.50;;;17.50;59.30;;;;;;5222851;28;20684;-66
2022/03/31 02:15:47;;;;;;;1.07;0.60;;;17.50;59.30;;;;;;5227198;28;20193;-65
2022/03/31 02:18:39;;;;;;;1.60;0.70;;;17.50;59.30;;;;;;5223520;28;20197;-66
2022/03/31 02:21:32;;;;;;;1.30;0.70;;;17.50;59.30;;;;;;5242739;28;20212;-66
2022/03/31 02:24:24;;;;;;;0.93;0.60;;;17.50;59.30;;;;;;5243407;28;20212;-65
2022/03/31 02:27:17;;;;;;;0.67;0.50;;;17.50;59.30;;;;;;5242655;28;20687;-64
2022/03/31 02:30:10;;;;;;;1.33;0.50;;;17.50;59.30;;;;;;5243101;28;20200;-65
2022/03/31 02:33:03;;;;;;;0.70;0.50;;;17.50;59.30;;;;;;5242596;28;20303;-65
2022/03/31 02:35:56;;;;;;;0.43;0.40;;;17.50;59.30;;;;;;5243830;28;20196;-65
2022/03/31 02:38:48;;;;;;;0.80;0.60;;;17.50;59.20;;;;;;5243275;28;20548;-66
2022/03/31 02:41:40;;;;;;;0.57;0.33;;;17.50;59.20;;;;;;5242518;28;20216;-66
2022/03/31 02:44:32;;;;;;;0.90;0.57;;;17.50;59.30;;;;;;5243015;28;20961;-65
2022/03/31 02:47:25;;;;;;;0.70;0.40;;;17.50;59.30;;;;;;5247126;28;20287;-66
2022/03/31 02:50:19;;;;;;;0.67;0.37;;;17.50;59.30;;;;;;5242767;28;20219;-64
2022/03/31 02:56:20;;;;;;;1.27;0.60;;;17.50;59.30;;;;;;5247311;28;20177;-65
2022/03/31 02:59:13;;;;;;;0.90;0.50;;;17.50;59.20;;;;;;5247118;28;20238;-65
2022/03/31 03:02:05;;;;;;;0.60;0.50;;;17.50;59.30;;;;;;5246397;28;20311;-66
2022/03/31 03:04:57;;;;;;;0.80;0.50;;;17.50;59.80;;;;;;5246779;28;20224;-65
2022/03/31 03:07:51;;;;;;;0.60;0.50;;;17.50;59.20;;;;;;5230467;28;20552;-65
2022/03/31 03:10:43;;;;;;;0.83;0.70;;;17.50;59.20;;;;;;5242025;28;20242;-65
2022/03/31 03:13:35;;;;;;;0.67;0.50;;;17.50;59.30;;;;;;5246694;28;20219;-66
2022/03/31 03:16:27;;;;;;;0.50;0.47;;;17.50;59.20;;;;;;5246099;28;20719;-66
2022/03/31 03:19:20;;;;;;;0.80;0.50;;;17.50;59.20;;;;;;5226534;28;20276;-65
2022/03/31 03:22:12;;;;;;;0.90;0.60;;;17.50;59.20;;;;;;5238730;28;20213;-66
2022/03/31 03:25:06;;;;;;;0.50;0.43;;;17.50;59.30;;;;;;5247240;28;20734;-65
2022/03/31 03:27:59;;;;;;;0.57;0.50;;;17.50;59.30;;;;;;5245944;28;20196;-65
2022/03/31 03:30:51;;;;;;;0.53;0.53;;;17.50;59.30;;;;;;5246470;28;20188;-66
2022/03/31 03:33:43;;;;;;;0.70;0.50;;;17.50;59.20;;;;;;5237646;28;20777;-66
2022/03/31 03:36:35;;;;;;;1.00;0.60;;;17.50;59.20;;;;;;5239195;28;20723;-66
2022/03/31 03:39:27;;;;;;;0.60;0.50;;;17.50;59.20;;;;;;5246328;28;20198;-65
2022/03/31 03:42:21;;;;;;;1.67;0.60;;;17.50;59.80;;;;;;5245884;28;20220;-65
2022/03/31 03:45:14;;;;;;;0.70;0.60;;;17.50;59.20;;;;;;5244134;28;20684;-65
2022/03/31 03:48:10;;;;;;;0.77;0.57;;;17.50;59.10;;;;;;5246207;28;20196;-66
2022/03/31 03:51:02;;;;;;;0.70;0.30;;;17.50;59.10;;;;;;5242230;28;20197;-65
2022/03/31 03:53:55;;;;;;;1.13;0.83;;;17.50;59.10;;;;;;5245887;28;20299;-66
2022/03/31 03:56:47;;;;;;;1.30;0.70;;;17.50;59.00;;;;;;5245771;28;20197;-66
2022/03/31 03:59:40;;;;;;;0.40;0.40;;;17.60;59.10;;;;;;5245677;28;20196;-66
2022/03/31 04:02:32;;;;;;;1.17;0.50;;;17.50;59.00;;;;;;5246636;28;20216;-66
2022/03/31 04:05:24;;;;;;;0.50;0.47;;;17.50;58.90;;;;;;5245113;28;20567;-65
2022/03/31 04:08:17;;;;;;;0.57;0.40;;;17.60;59.00;;;;;;5240493;28;20201;-66
2022/03/31 04:11:09;;;;;;;0.77;0.50;;;17.60;59.00;;;;;;5234230;28;20572;-65
2022/03/31 04:14:01;;;;;;;1.30;0.80;;;17.50;59.00;;;;;;5245378;28;20287;-66
2022/03/31 04:16:56;;;;;;;0.97;0.67;;;17.60;59.00;;;;;;5245834;28;20679;-66
2022/03/31 04:19:48;;;;;;;0.37;0.37;;;17.50;59.00;;;;;;5244463;28;20237;-65
2022/03/31 04:22:40;;;;;;;0.50;0.50;;;17.60;59.10;;;;;;5244823;28;20262;-64
2022/03/31 04:25:33;;;;;;;1.07;0.63;;;17.60;59.10;;;;;;5225071;28;20186;-65
2022/03/31 04:28:25;;;;;;;1.00;0.63;;;17.60;59.10;;;;;;5234398;28;20660;-65
2022/03/31 04:31:17;;;;;;;0.90;0.70;;;17.60;59.10;;;;;;5244821;28;20280;-64
2022/03/31 04:34:11;;;;;;;0.53;0.40;;;17.60;59.10;;;;;;5244936;28;20216;-65
2022/03/31 04:37:03;;;;;;;0.40;0.40;;;17.60;59.10;;;;;;5245331;28;20541;-66
2022/03/31 04:39:55;;;;;;;1.10;0.63;;;17.60;59.10;;;;;;5245085;28;20275;-66
2022/03/31 04:42:47;;;;;;;1.03;0.60;;;17.60;59.10;;;;;;5244546;28;20261;-65
2022/03/31 04:45:39;;;;;;;0.50;0.50;;;17.60;59.10;;;;;;5245453;28;20200;-66
2022/03/31 04:48:33;;;;;;;0.70;0.60;;;17.60;59.10;;;;;;5245219;28;20697;-65
2022/03/31 04:51:26;;;;;;;1.17;0.90;;;17.60;59.10;;;;;;5229195;28;20685;-66
2022/03/31 04:54:18;;;;;;;1.00;0.60;;;17.60;59.10;;;;;;5225788;28;20654;-64
2022/03/31 04:57:12;;;;;;;1.57;0.63;;;17.60;59.10;;;;;;5238929;28;20204;-65
2022/03/31 05:00:06;;;;;;;0.70;0.53;;;17.60;59.10;;;;;;5243687;28;20621;-66
2022/03/31 05:02:59;;;;;;;0.57;0.53;;;17.60;59.00;;;;;;5243796;28;20212;-67
2022/03/31 05:05:51;;;;;;;0.53;0.53;;;17.60;59.00;;;;;;5245021;28;20196;-66
2022/03/31 05:08:44;;;;;;;1.17;0.60;;;17.60;59.00;;;;;;5235784;28;20237;-66
2022/03/31 05:11:36;;;;;;;1.50;0.77;;;17.60;59.00;;;;;;5242696;28;20333;-65
2022/03/31 05:14:29;;;;;;;1.37;0.80;;;17.60;59.00;;;;;;5243023;28;20252;-66
2022/03/31 05:17:21;;;;;;;1.10;0.77;;;17.60;59.00;;;;;;5249341;28;20682;-66
2022/03/31 05:20:14;;;;;;;1.00;0.83;;;17.60;59.60;;;;;;5224524;28;20272;-66
2022/03/31 05:23:06;;;;;;;1.17;0.80;;;17.60;59.00;;;;;;5225413;28;20228;-65
2022/03/31 05:26:00;;;;;;;0.77;0.70;;;17.60;59.00;;;;;;5224632;28;20200;-66
2022/03/31 05:28:52;;;;;;;0.70;0.70;;;17.60;59.00;;;;;;5244045;28;20734;-66
2022/03/31 05:31:44;;;;;;;0.67;0.60;;;17.60;59.00;;;;;;5244362;28;20728;-66
2022/03/31 05:34:36;;;;;;;0.80;0.73;;;17.60;59.00;;;;;;5239429;28;20284;-66
2022/03/31 05:37:28;;;;;;;0.77;0.77;;;17.60;59.00;;;;;;5244339;28;20630;-66
2022/03/31 05:40:22;;;;;;;0.90;0.83;;;17.60;59.00;;;;;;5246015;28;20241;-66
2022/03/31 05:43:15;;;;;;;0.80;0.80;;;17.60;58.90;;;;;;5229658;28;20223;-66
2022/03/31 05:46:08;;;;;;;1.17;0.70;;;17.60;59.10;;;;;;5243929;28;20225;-66
2022/03/31 05:49:00;;;;;;;1.00;0.60;;;17.60;59.10;;;;;;5243852;28;20283;-66
2022/03/31 05:51:52;;;;;;;0.80;0.80;;;17.60;59.10;;;;;;5224874;28;20912;-66
2022/03/31 05:54:44;;;;;;;1.37;0.97;;;17.50;59.10;;;;;;5242873;28;20251;-66
2022/03/31 05:57:37;;;;;;;1.20;1.00;;;17.60;59.10;;;;;;5242815;28;20268;-66
2022/03/31 06:00:30;;;;;;;1.30;1.00;;;17.60;59.10;;;;;;5242169;28;20609;-65
2022/03/31 06:03:23;;;;;;;1.27;1.00;;;17.60;59.10;;;;;;5241164;28;20226;-65
2022/03/31 06:06:15;;;;;;;1.50;0.90;;;17.60;59.10;;;;;;5242190;28;20192;-65
2022/03/31 06:09:07;;;;;;;1.07;0.87;;;17.60;59.10;;;;;;5237500;28;20270;-66
2022/03/31 06:11:59;;;;;;;2.00;1.20;;;17.60;59.10;;;;;;5239659;28;20251;-64
2022/03/31 06:14:51;;;;;;;1.03;0.90;;;17.60;58.90;;;;;;5243399;28;20309;-63
2022/03/31 06:17:46;;;;;;;1.50;1.07;;;17.60;59.00;;;;;;5243300;28;20303;-63
2022/03/31 06:20:38;;;;;;;1.47;1.10;;;17.60;58.90;;;;;;5243025;28;20211;-64
2022/03/31 06:23:31;;;;;;;1.27;1.10;;;17.60;58.90;;;;;;5242842;28;20637;-63
2022/03/31 06:26:23;;;;;;;1.43;1.20;;;17.60;58.90;;;;;;5243153;28;20853;-62
2022/03/31 06:29:16;;;;;;;1.33;1.03;;;17.60;59.00;;;;;;5222116;28;20286;-63
2022/03/31 06:32:09;;;;;;;2.27;1.10;;;17.60;59.00;;;;;;5241265;28;20246;-63
2022/03/31 06:35:02;;;;;;;1.90;1.30;;;17.60;59.10;;;;;;5243254;28;20220;-66
2022/03/31 06:37:54;;;;;;;3.33;1.30;;;17.60;59.10;;;;;;5243422;28;20303;-66
2022/03/31 06:41:06;;;;;;;1.13;1.03;;;17.60;59.20;;;;;;5242014;28;20192;-64
2022/03/31 06:43:59;;;;;;;2.00;1.10;;;17.60;59.30;;;;;;5241882;28;20220;-62
2022/03/31 06:46:52;;;;;;;1.67;1.00;;;17.60;59.20;;;;;;5242316;28;20234;-63
2022/03/31 06:49:44;;;;;;;1.40;1.07;;;17.60;59.20;;;;;;5242104;28;20207;-63
2022/03/31 06:52:38;;;;;;;1.50;0.90;;;17.60;59.20;;;;;;5229545;28;20648;-63
2022/03/31 06:55:30;;;;;;;1.10;1.00;;;17.60;59.20;;;;;;5222809;28;20193;-63
2022/03/31 06:58:25;;;;;;;1.17;0.83;;;17.60;59.30;;;;;;5236356;28;20203;-63
2022/03/31 07:01:17;;;;;;;2.10;1.00;;;17.60;59.30;;;;;;5242206;28;20683;-63
2022/03/31 07:04:10;;;;;;;1.43;1.10;;;17.60;59.30;;;;;;5242351;28;20232;-63
2022/03/31 07:07:02;;;;;;;2.37;1.03;;;17.60;59.30;;;;;;5243576;28;20227;-63
2022/03/31 07:09:57;;;;;;;1.47;1.10;;;17.60;59.40;;;;;;5232526;28;20258;-63
2022/03/31 07:12:49;;;;;;;1.70;1.00;;;17.60;59.40;;;;;;5242107;28;20192;-63
2022/03/31 07:15:42;;;;;;;1.63;0.83;;;17.60;59.50;;;;;;5241671;28;20196;-63
2022/03/31 07:18:34;;;;;;;1.03;0.93;;;17.60;59.50;;;;;;5241514;28;20196;-62
2022/03/31 07:21:26;;;;;;;1.53;1.10;;;17.60;59.50;;;;;;5222193;28;20197;-63
2022/03/31 07:24:18;;;;;;;1.97;1.03;;;17.60;59.60;;;;;;5233845;28;20280;-63
2022/03/31 07:27:12;;;;;;;1.77;1.20;;;17.60;59.60;;;;;;5222671;28;20243;-63
2022/03/31 07:30:05;;;;;;;1.50;1.30;;;17.60;59.70;;;;;;5228193;28;20269;-63
2022/03/31 07:32:59;;;;;;;1.50;1.17;;;17.60;59.60;;;;;;5243915;28;20253;-63
2022/03/31 07:35:51;;;;;;;1.63;1.13;;;17.60;59.70;;;;;;5246138;28;20303;-63
2022/03/31 07:38:45;;;;;;;1.50;1.13;;;17.60;59.80;;;;;;5236307;28;20271;-63
2022/03/31 07:41:37;;;;;;;1.23;1.10;;;17.60;59.80;;;;;;5245430;28;20196;-63
2022/03/31 07:44:31;;;;;;;1.13;0.80;;;17.60;59.80;;;;;;5246101;28;20350;-63
2022/03/31 07:47:23;;;;;;;1.20;1.03;;;17.60;59.80;;;;;;5246018;28;20363;-61
2022/03/31 07:50:17;;;;;;;2.00;1.10;;;17.60;59.80;;;;;;5242064;28;20878;-64
2022/03/31 07:53:10;;;;;;;1.57;1.23;;;17.60;59.80;;;;;;5245647;28;20678;-63
2022/03/31 07:56:03;;;;;;;1.50;1.07;;;17.60;59.80;;;;;;5245787;28;20200;-62
2022/03/31 07:58:56;;;;;;;1.23;0.90;;;17.60;59.90;;;;;;5246017;28;20253;-63
2022/03/31 08:01:49;;;;;;;1.40;1.00;;;17.60;59.90;;;;;;5239323;28;20701;-63
2022/03/31 08:04:41;;;;;;;1.57;1.27;;;17.60;59.90;;;;;;5245562;28;20719;-63
2022/03/31 08:07:33;;;;;;;3.23;1.27;;;17.60;59.90;;;;;;5245314;28;20326;-63
2022/03/31 08:10:26;;;;;;;1.23;1.00;;;17.60;59.90;;;;;;5229396;28;20189;-63
2022/03/31 08:13:26;;;;;;;2.73;1.33;;;17.60;59.90;;;;;;5223961;28;20292;-64
2022/03/31 08:16:18;;;;;;;1.20;1.07;;;17.60;60.00;;;;;;5231843;28;20642;-66
2022/03/31 08:19:12;;;;;;;1.40;1.03;;;17.60;60.00;;;;;;5245619;28;20226;-63
2022/03/31 08:22:04;;;;;;;1.77;1.20;;;17.60;60.10;;;;;;5244928;28;20323;-63
2022/03/31 08:24:56;;;;;;;1.53;1.37;;;17.60;60.00;;;;;;5244710;28;20220;-63
2022/03/31 08:27:49;;;;;;;1.83;1.20;;;17.60;59.90;;;;;;5244993;28;20742;-63
2022/03/31 08:30:41;;;;;;;1.10;1.00;;;17.60;59.80;;;;;;5244816;28;20245;-63
2022/03/31 08:33:33;;;;;;;2.43;1.00;;;17.60;59.80;;;;;;5245765;28;20295;-66
2022/03/31 08:36:27;;;;;;;2.03;1.00;;;17.60;60.00;;;;;;5244554;28;20279;-64
2022/03/31 08:39:19;;;;;;;1.93;1.17;;;17.60;60.20;;;;;;5245258;28;20200;-65
2022/03/31 08:42:11;;;;;;;1.97;1.27;;;17.60;60.00;;;;;;5243902;28;20335;-66
2022/03/31 08:45:04;;;;;;;1.30;1.03;;;17.50;59.80;;;;;;5244506;28;20205;-66
2022/03/31 08:47:58;;;;;;;1.23;1.13;;;17.50;59.60;;;;;;5245141;28;20693;-66
2022/03/31 08:50:50;;;;;;;1.70;1.30;;;17.60;59.70;;;;;;5235170;28;20702;-65
2022/03/31 08:53:43;;;;;;;2.50;1.30;;;17.60;59.70;;;;;;5232913;28;20204;-65
2022/03/31 08:56:35;;;;;;;1.33;1.17;;;17.50;59.60;;;;;;5244387;28;20282;-65
2022/03/31 08:59:28;;;;;;;1.43;1.13;;;17.50;59.60;;;;;;5244893;28;20200;-65
2022/03/31 09:02:24;;;;;;;1.47;1.00;;;17.50;59.60;;;;;;5231603;28;20217;-65
2022/03/31 09:05:17;;;;;;;1.37;1.20;;;17.60;59.50;;;;;;5202726;28;20189;-66
2022/03/31 09:08:12;;;;;;;1.97;1.30;;;17.50;59.50;;;;;;5218410;28;20193;-65
2022/03/31 09:11:05;;;;;;;1.23;1.00;;;17.60;59.50;;;;;;5222077;28;20987;-66
2022/03/31 09:13:58;;;;;;;1.80;1.30;;;17.60;59.50;;;;;;5203297;28;20264;-66
2022/03/31 09:16:50;;;;;;;1.90;1.23;;;17.50;59.50;;;;;;5212058;28;20196;-65
2022/03/31 09:19:43;;;;;;;1.87;1.40;;;17.50;59.30;;;;;;5223905;28;20334;-66
2022/03/31 09:22:45;;;;;;;2.37;1.17;;;17.50;59.40;;;;;;5223418;28;20213;-66
2022/03/31 09:25:37;;;;;;;1.30;1.10;;;17.60;59.40;;;;;;5223575;28;20197;-66
2022/03/31 09:28:31;;;;;;;2.27;1.10;;;17.60;59.40;;;;;;5229514;28;20810;-66
2022/03/31 09:31:25;;;;;;;1.57;1.10;;;17.50;59.90;;;;;;5217418;28;20197;-66
2022/03/31 09:34:17;;;;;;;2.70;1.20;;;17.60;59.40;;;;;;5216225;28;20748;-65
2022/03/31 09:37:10;;;;;;;1.60;1.23;;;17.50;59.30;;;;;;5222938;28;20688;-65
2022/03/31 09:40:02;;;;;;;1.43;1.20;;;17.50;59.20;;;;;;5222518;28;20236;-66
2022/03/31 09:42:58;;;;;;;1.47;1.37;;;17.50;59.30;;;;;;5228626;28;20583;-65
2022/03/31 09:45:52;;;;;;;2.77;1.10;;;17.50;59.30;;;;;;5221372;28;20193;-66
2022/03/31 09:48:45;;;;;;;1.00;0.90;;;17.50;59.30;;;;;;5223481;28;20201;-65
2022/03/31 09:51:37;;;;;;;2.37;1.23;;;17.50;59.30;;;;;;5222115;28;20201;-65
2022/03/31 09:54:32;;;;;;;1.70;1.13;;;17.50;59.30;;;;;;5222506;28;20208;-65
2022/03/31 09:57:25;;;;;;;1.47;1.23;;;17.50;59.30;;;;;;5219303;28;20670;-64
2022/03/31 10:00:20;;;;;;;1.40;1.20;;;17.50;59.20;;;;;;5222762;28;20197;-67
2022/03/31 10:03:15;;;;;;;1.27;1.10;;;17.50;59.30;;;;;;5217894;28;20239;-67
2022/03/31 10:06:09;;;;;;;1.50;1.07;;;17.60;59.50;;;;;;5244115;28;20625;-67
2022/03/31 10:09:02;;;;;;;1.40;1.10;;;17.50;59.50;;;;;;5241728;28;20232;-67
2022/03/31 10:11:59;;;;;;;1.87;1.17;;;17.60;59.50;;;;;;5223334;28;20272;-67
2022/03/31 10:14:55;;;;;;;2.30;1.20;;;17.60;59.50;;;;;;5227652;28;20279;-67
2022/03/31 10:17:49;;;;;;;1.33;0.90;;;17.60;59.50;;;;;;5240131;28;20274;-66
2022/03/31 10:20:53;;;;;;;1.73;1.00;;;17.60;59.50;;;;;;5242761;28;20196;-67
2022/03/31 10:27:01;;;;;;;1.30;1.10;;;17.60;59.40;;;;;;5243149;28;20192;-67
2022/03/31 10:29:54;;;;;;;1.93;0.90;;;17.60;59.40;;;;;;5243944;28;20196;-66
2022/03/31 10:32:54;;;;;;;1.13;1.03;;;17.60;59.40;;;;;;5242832;28;20617;-66
2022/03/31 10:35:47;;;;;;;1.40;1.00;;;17.60;59.40;;;;;;5243914;28;20716;-67
2022/03/31 10:38:51;;;;;;;1.27;1.13;;;17.60;59.40;;;;;;5243117;28;20287;-66
2022/03/31 10:41:44;;;;;;;1.20;1.10;;;17.60;59.40;;;;;;5242794;28;20235;-66
2022/03/31 10:44:36;;;;;;;1.50;1.07;;;17.60;59.40;;;;;;5233108;28;20246;-66
2022/03/31 10:47:33;;;;;;;1.90;1.10;;;17.60;59.30;;;;;;5238072;28;20282;-67
2022/03/31 10:50:28;;;;;;;1.07;0.93;;;17.60;59.30;;;;;;5239164;28;20208;-67
2022/03/31 10:53:29;;;;;;;1.30;0.93;;;17.60;59.30;;;;;;5242269;28;20216;-67
2022/03/31 10:56:24;;;;;;;1.10;0.80;;;17.60;59.30;;;;;;5242850;28;20196;-67
2022/03/31 10:59:17;;;;;;;1.27;1.00;;;17.60;59.30;;;;;;5242487;28;20196;-67
2022/03/31 11:02:15;;;;;;;1.73;1.13;;;17.60;59.30;;;;;;5241696;28;20207;-66
2022/03/31 11:05:08;;;;;;;3.07;1.10;;;17.60;59.20;;;;;;5224371;28;20217;-67
2022/03/31 11:08:05;;;;;;;1.23;0.90;;;17.60;59.20;;;;;;5224876;28;20189;-66
2022/03/31 11:10:58;;;;;;;1.70;1.10;;;17.60;59.20;;;;;;5225121;28;20242;-67
2022/03/31 11:13:52;;;;;;;1.23;0.80;;;17.60;59.20;;;;;;5224870;28;20419;-67
2022/03/31 11:16:45;;;;;;;1.63;1.20;;;17.60;59.20;;;;;;5224441;28;20749;-66
2022/03/31 11:19:37;;;;;;;1.63;1.00;;;17.60;59.20;;;;;;5224919;28;20239;-67
2022/03/31 11:22:30;;;;;;;0.90;0.90;;;17.60;59.20;;;;;;5223784;28;20198;-66
2022/03/31 11:25:24;;;;;;;1.23;1.00;;;17.60;59.10;;;;;;5224146;28;20201;-67
2022/03/31 11:28:18;;;;;;;2.60;1.10;;;17.60;59.10;;;;;;5224367;28;20287;-67
2022/03/31 11:31:14;;;;;;;1.17;1.07;;;17.60;59.10;;;;;;5223415;28;20205;-67
2022/03/31 11:34:17;;;;;;;2.40;0.80;;;17.60;59.10;;;;;;5235301;28;20209;-66
2022/03/31 11:37:18;;;;;;;1.60;1.10;;;17.60;59.70;;;;;;5216988;28;20213;-67
2022/03/31 11:40:13;;;;;;;1.70;1.00;;;17.60;59.10;;;;;;5218150;28;20339;-67
2022/03/31 11:43:08;;;;;;;1.00;0.90;;;17.60;59.10;;;;;;5224312;28;20711;-67
2022/03/31 11:46:01;;;;;;;1.20;1.00;;;17.60;59.10;;;;;;5224747;28;20283;-66
2022/03/31 11:48:54;;;;;;;2.30;1.10;;;17.60;59.10;;;;;;5224398;28;20185;-67
2022/03/31 11:51:50;;;;;;;1.10;0.97;;;17.60;59.00;;;;;;5223920;28;20644;-66
2022/03/31 11:54:42;;;;;;;1.40;1.00;;;17.60;59.00;;;;;;5224916;28;20314;-65
2022/03/31 11:57:34;;;;;;;0.97;0.87;;;17.60;59.00;;;;;;5223796;28;20846;-66
2022/03/31 12:00:30;;;;;;;1.30;1.03;;;17.60;59.10;;;;;;5223292;28;20197;-65
2022/03/31 12:03:24;;;;;;;0.70;0.70;;;17.60;59.10;;;;;;5230149;28;20224;-66
2022/03/31 12:06:16;;;;;;;2.73;1.00;;;17.60;59.10;;;;;;5244972;28;20295;-66
2022/03/31 12:09:08;;;;;;;1.73;1.13;;;17.60;59.00;;;;;;5244661;28;20268;-65
2022/03/31 12:12:01;;;;;;;1.47;0.93;;;17.60;59.00;;;;;;5244954;28;20322;-66
2022/03/31 12:14:55;;;;;;;0.87;0.80;;;17.60;59.00;;;;;;5242666;28;20274;-66
2022/03/31 12:17:57;;;;;;;1.40;0.90;;;17.60;59.00;;;;;;5245670;28;20196;-66
2022/03/31 12:21:00;;;;;;;1.40;1.10;;;17.60;58.90;;;;;;5234315;28;20254;-66
2022/03/31 12:23:52;;;;;;;1.37;1.00;;;17.60;58.90;;;;;;5225255;28;20220;-66
2022/03/31 12:26:55;;;;;;;1.73;1.00;;;17.60;58.90;;;;;;5236735;28;20281;-65
2022/03/31 12:29:59;;;;;;;1.67;1.00;;;17.60;58.90;;;;;;5245734;28;20204;-65
2022/03/31 12:32:51;;;;;;;1.50;1.00;;;17.60;58.90;;;;;;5245017;28;20207;-67
2022/03/31 12:35:43;;;;;;;1.30;1.00;;;17.60;58.90;;;;;;5245252;28;20284;-67
2022/03/31 12:38:40;;;;;;;1.33;1.03;;;17.60;58.80;;;;;;5245543;28;20282;-67
2022/03/31 12:41:34;;;;;;;1.97;1.00;;;17.60;58.70;;;;;;5244815;28;20192;-67
2022/03/31 12:44:31;;;;;;;1.00;0.77;;;17.60;58.60;;;;;;5244166;28;20354;-66
2022/03/31 12:47:25;;;;;;;1.77;1.20;;;17.60;58.50;;;;;;5245017;28;20189;-67
2022/03/31 12:50:19;;;;;;;1.30;1.07;;;17.60;58.60;;;;;;5240336;28;20740;-67
2022/03/31 12:53:11;;;;;;;1.53;0.97;;;17.60;58.50;;;;;;5224536;28;20262;-67
2022/03/31 12:56:05;;;;;;;3.50;1.40;;;17.50;58.40;;;;;;5238682;28;20203;-67
2022/03/31 12:58:57;;;;;;;1.60;1.23;;;17.50;58.50;;;;;;5244828;28;20329;-67
2022/03/31 13:02:00;;;;;;;3.30;1.30;;;17.60;58.50;;;;;;5243980;28;20281;-67
2022/03/31 13:04:53;;;;;;;0.97;0.87;;;17.50;58.50;;;;;;5244210;28;20674;-67
2022/03/31 13:07:45;;;;;;;1.73;1.10;;;17.60;58.50;;;;;;5244142;28;20201;-68
2022/03/31 13:10:39;;;;;;;2.20;1.27;;;17.60;58.50;;;;;;5242979;28;20241;-66
2022/03/31 13:13:32;;;;;;;2.20;1.10;;;17.60;58.70;;;;;;5244068;28;20313;-64
2022/03/31 13:16:24;;;;;;;1.20;1.00;;;17.60;58.90;;;;;;5244286;28;20523;-63
2022/03/31 13:19:17;;;;;;;1.57;0.90;;;17.60;58.80;;;;;;5238073;28;20232;-64
2022/03/31 13:22:12;;;;;;;1.63;1.10;;;17.60;58.80;;;;;;5227670;28;20250;-63
2022/03/31 13:25:06;;;;;;;1.47;1.17;;;17.50;59.20;;;;;;5241551;28;20208;-63
2022/03/31 13:27:58;;;;;;;1.57;1.20;;;17.60;58.90;;;;;;5243147;28;20283;-63
2022/03/31 13:30:51;;;;;;;2.60;1.13;;;17.60;58.80;;;;;;5243435;28;20788;-63
2022/03/31 13:33:44;;;;;;;1.80;1.00;;;17.60;58.80;;;;;;5243851;28;20259;-64
2022/03/31 13:36:37;;;;;;;1.20;0.90;;;17.60;58.70;;;;;;5238047;28;20201;-64
2022/03/31 13:39:31;;;;;;;1.17;0.97;;;17.60;58.70;;;;;;5235403;28;20679;-63
2022/03/31 13:42:23;;;;;;;0.97;0.80;;;17.60;59.30;;;;;;5226703;28;20343;-64
2022/03/31 13:45:15;;;;;;;1.03;0.93;;;17.60;58.80;;;;;;5222353;28;20549;-63
2022/03/31 13:48:09;;;;;;;1.40;1.20;;;17.60;58.80;;;;;;5243752;28;20192;-64
2022/03/31 13:51:01;;;;;;;1.13;0.90;;;17.60;58.80;;;;;;5239442;28;20192;-63
2022/03/31 13:53:55;;;;;;;2.53;0.83;;;17.60;58.80;;;;;;5243278;28;20315;-66
2022/03/31 13:56:50;;;;;;;1.90;1.00;;;17.60;58.80;;;;;;5242468;28;20254;-66
2022/03/31 14:02:48;;;;;;;1.00;0.80;;;17.60;59.00;;;;;;5206265;28;20243;-65
2022/03/31 14:05:41;;;;;;;1.93;1.20;;;17.60;59.10;;;;;;5237879;28;20749;-66
2022/03/31 14:08:35;;;;;;;1.47;1.13;;;17.60;59.10;;;;;;5243955;28;20204;-66
2022/03/31 14:11:30;;;;;;;1.07;0.97;;;17.70;59.10;;;;;;5243189;28;20200;-66
2022/03/31 14:14:25;;;;;;;1.37;0.93;;;17.60;59.10;;;;;;5242693;28;20292;-66
2022/03/31 14:17:17;;;;;;;1.27;0.77;;;17.70;59.10;;;;;;5242923;28;20569;-65
2022/03/31 14:20:11;;;;;;;2.47;0.90;;;17.70;59.10;;;;;;5228206;28;20409;-66
2022/03/31 14:23:04;;;;;;;1.20;0.80;;;17.70;59.10;;;;;;5242400;28;20726;-66
2022/03/31 14:25:59;;;;;;;1.23;0.90;;;17.70;59.10;;;;;;5243045;28;20358;-66
2022/03/31 14:28:53;;;;;;;1.17;1.07;;;17.70;59.00;;;;;;5222579;28;20201;-67
2022/03/31 14:31:49;;;;;;;0.93;0.83;;;17.60;59.00;;;;;;5233434;28;20345;-66
2022/03/31 14:34:41;;;;;;;1.77;1.13;;;17.60;59.50;;;;;;5243344;28;20588;-66
2022/03/31 14:37:34;;;;;;;0.83;0.63;;;17.60;58.90;;;;;;5243716;28;20199;-66
2022/03/31 14:40:27;;;;;;;1.13;0.80;;;17.70;59.00;;;;;;5242800;28;20249;-63
2022/03/31 14:43:20;;;;;;;0.97;0.87;;;17.60;58.90;;;;;;5247239;28;20633;-66
2022/03/31 14:46:14;;;;;;;0.80;0.70;;;17.70;58.90;;;;;;5247807;28;20539;-66
2022/03/31 14:49:08;;;;;;;1.47;0.80;;;17.70;58.90;;;;;;5246778;28;20257;-66
2022/03/31 14:52:00;;;;;;;2.93;1.10;;;17.60;58.80;;;;;;5226444;28;20197;-66
2022/03/31 14:54:53;;;;;;;1.87;1.00;;;17.70;58.50;;;;;;5235131;28;20767;-66
2022/03/31 14:57:47;;;;;;;0.90;0.80;;;17.60;57.90;;;;;;5226586;28;20197;-65
2022/03/31 15:00:39;;;;;;;0.87;0.77;;;17.60;58.40;;;;;;5242302;28;20203;-66
2022/03/31 15:03:32;;;;;;;1.53;0.83;;;17.60;58.40;;;;;;5247042;28;20362;-66
2022/03/31 15:06:26;;;;;;;1.97;1.07;;;17.60;58.50;;;;;;5246649;28;20199;-65
2022/03/31 15:15:39;;;;;;;2.20;0.90;;;17.60;58.10;;;;;;5236515;28;20279;-66
2022/03/31 15:18:31;;;;;;;1.20;0.87;;;17.60;58.00;;;;;;5247080;28;20200;-66